createdAt,value
2023-04-29T00:00:20.900Z,15.38
2023-04-29T00:03:23.576Z,15.85
2023-04-29T00:06:28.145Z,15.23
2023-04-29T00:09:30.665Z,16.05
2023-04-29T00:12:33.442Z,16.00
2023-04-29T00:15:37.426Z,15.57
2023-04-29T00:18:39.947Z,15.32
2023-04-29T00:21:43.851Z,14.13
2023-04-29T00:24:46.369Z,16.30
2023-04-29T00:27:48.897Z,16.70
2023-04-29T00:30:51.697Z,15.93
2023-04-29T00:33:54.299Z,17.17
2023-04-29T00:36:58.208Z,18.02
2023-04-29T00:40:00.774Z,17.52
2023-04-29T00:43:03.370Z,18.00
2023-04-29T00:46:06.045Z,17.45
2023-04-29T00:49:08.582Z,17.35
2023-04-29T00:52:12.752Z,16.85
2023-04-29T00:55:15.340Z,18.35
2023-04-29T00:58:18.417Z,16.42
2023-04-29T01:01:21.771Z,17.63
2023-04-29T01:04:24.391Z,17.42
2023-04-29T01:07:31.457Z,16.02
2023-04-29T01:10:36.824Z,17.00
2023-04-29T01:13:43.761Z,17.38
2023-04-29T01:16:49.587Z,17.08
2023-04-29T01:19:55.082Z,17.13
2023-04-29T01:22:58.999Z,15.85
2023-04-29T01:26:02.842Z,16.77
2023-04-29T01:29:11.745Z,17.20
2023-04-29T01:32:15.888Z,14.95
2023-04-29T01:35:26.648Z,16.77
2023-04-29T01:38:34.076Z,16.45
2023-04-29T01:44:43.087Z,17.13
2023-04-29T01:47:46.221Z,17.67
2023-04-29T01:50:48.839Z,16.48
2023-04-29T01:53:51.603Z,17.02
2023-04-29T01:56:55.484Z,15.73
2023-04-29T01:59:58.159Z,14.48
2023-04-29T02:03:00.874Z,15.25
2023-04-29T02:06:04.352Z,16.17
2023-04-29T02:09:06.975Z,15.63
2023-04-29T02:12:10.900Z,14.95
2023-04-29T02:15:13.504Z,14.68
2023-04-29T02:18:16.069Z,14.95
2023-04-29T02:21:18.585Z,14.50
2023-04-29T02:24:21.088Z,13.93
2023-04-29T02:27:25.032Z,15.07
2023-04-29T02:30:27.626Z,13.85
2023-04-29T02:33:30.220Z,13.70
2023-04-29T02:36:32.777Z,13.55
2023-04-29T02:39:35.333Z,13.10
2023-04-29T02:42:39.198Z,13.55
2023-04-29T02:45:41.721Z,12.70
2023-04-29T02:48:44.319Z,12.70
2023-04-29T02:51:49.538Z,13.00
2023-04-29T02:54:52.095Z,13.57
2023-04-29T02:57:55.946Z,12.63
2023-04-29T03:00:58.472Z,12.57
2023-04-29T03:04:01.368Z,12.60
2023-04-29T03:07:04.808Z,13.40
2023-04-29T03:10:08.978Z,13.20
2023-04-29T03:13:12.893Z,13.45
2023-04-29T03:16:16.873Z,12.02
2023-04-29T03:19:19.556Z,13.00
2023-04-29T03:22:22.097Z,13.38
2023-04-29T03:25:24.875Z,13.35
2023-04-29T03:28:28.725Z,12.45
2023-04-29T03:31:31.340Z,13.55
2023-04-29T03:34:34.298Z,13.27
2023-04-29T03:37:37.097Z,13.25
2023-04-29T03:40:39.672Z,14.05
2023-04-29T03:43:44.533Z,14.55
2023-04-29T03:46:47.094Z,11.95
2023-04-29T03:49:49.720Z,13.30
2023-04-29T03:52:52.327Z,11.57
2023-04-29T03:55:54.877Z,11.65
2023-04-29T03:58:58.880Z,11.75
2023-04-29T04:02:01.485Z,11.80
2023-04-29T04:05:04.183Z,13.02
2023-04-29T04:08:06.887Z,13.60
2023-04-29T04:11:09.713Z,12.55
2023-04-29T04:14:13.958Z,12.75
2023-04-29T04:17:16.463Z,13.60
2023-04-29T04:20:19.387Z,12.40
2023-04-29T04:23:21.932Z,12.43
2023-04-29T04:26:24.509Z,13.35
2023-04-29T04:29:28.409Z,13.55
2023-04-29T04:32:31.024Z,13.93
2023-04-29T04:35:33.636Z,13.77
2023-04-29T04:38:36.208Z,14.73
2023-04-29T04:41:39.535Z,13.02
2023-04-29T04:44:43.452Z,14.23
2023-04-29T04:47:46.021Z,14.95
2023-04-29T04:50:48.604Z,13.48
2023-04-29T04:53:51.597Z,13.63
2023-04-29T04:56:54.142Z,14.30
2023-04-29T04:59:58.088Z,14.15
2023-04-29T05:03:00.910Z,13.93
2023-04-29T05:06:03.514Z,14.48
2023-04-29T05:09:06.300Z,14.52
2023-04-29T05:12:08.826Z,17.15
2023-04-29T05:15:14.855Z,16.55
2023-04-29T05:18:17.423Z,15.82
2023-04-29T05:21:19.992Z,15.55
2023-04-29T05:24:22.502Z,17.58
2023-04-29T05:27:25.172Z,16.23
2023-04-29T05:30:29.070Z,16.88
2023-04-29T05:33:31.589Z,15.85
2023-04-29T05:36:34.152Z,15.55
2023-04-29T05:39:36.708Z,16.27
2023-04-29T05:42:39.276Z,16.08
2023-04-29T05:45:43.171Z,15.38
2023-04-29T05:48:46.080Z,17.70
2023-04-29T05:51:48.655Z,16.13
2023-04-29T05:54:51.356Z,14.57
2023-04-29T05:57:53.921Z,15.98
2023-04-29T06:00:59.923Z,16.77
2023-04-29T06:04:02.861Z,15.93
2023-04-29T06:07:05.755Z,15.35
2023-04-29T06:10:09.560Z,14.82
2023-04-29T06:13:12.125Z,13.95
2023-04-29T06:16:16.091Z,10.82
2023-04-29T06:19:19.219Z,11.70
2023-04-29T06:22:21.768Z,12.10
2023-04-29T06:25:24.346Z,10.73
2023-04-29T06:28:27.008Z,11.18
2023-04-29T06:31:30.977Z,12.13
2023-04-29T06:34:33.737Z,12.35
2023-04-29T06:37:37.938Z,12.52
2023-04-29T06:40:40.811Z,12.38
2023-04-29T06:43:43.696Z,12.20
2023-04-29T06:46:47.786Z,8.45
2023-04-29T06:49:50.806Z,10.40
2023-04-29T06:52:54.091Z,9.43
2023-04-29T06:55:56.640Z,9.18
2023-04-29T06:58:59.161Z,9.00
2023-04-29T07:02:02.977Z,8.65
2023-04-29T07:05:06.294Z,9.52
2023-04-29T07:08:09.984Z,8.00
2023-04-29T07:11:12.892Z,7.30
2023-04-29T07:14:16.015Z,6.97
2023-04-29T07:17:20.648Z,5.90
2023-04-29T07:20:23.310Z,5.95
2023-04-29T07:23:26.169Z,6.35
2023-04-29T07:26:28.730Z,6.03
2023-04-29T07:29:31.294Z,5.65
2023-04-29T07:32:35.541Z,6.85
2023-04-29T07:35:38.155Z,6.57
2023-04-29T07:38:40.701Z,6.28
2023-04-29T07:41:43.284Z,6.60
2023-04-29T07:44:46.188Z,6.10
2023-04-29T07:47:50.144Z,6.53
2023-04-29T07:50:52.754Z,5.40
2023-04-29T07:53:55.302Z,5.82
2023-04-29T07:56:58.913Z,5.60
2023-04-29T08:00:01.487Z,5.43
2023-04-29T08:03:05.545Z,6.13
2023-04-29T08:06:08.324Z,5.97
2023-04-29T08:09:11.326Z,5.63
2023-04-29T08:12:13.905Z,5.45
2023-04-29T08:15:16.675Z,5.70
2023-04-29T08:18:21.177Z,5.10
2023-04-29T08:21:23.744Z,5.90
2023-04-29T08:24:26.552Z,5.93
2023-04-29T08:27:29.109Z,5.05
2023-04-29T08:30:31.666Z,5.28
2023-04-29T08:33:35.883Z,5.60
2023-04-29T08:36:38.624Z,5.32
2023-04-29T08:39:43.295Z,5.05
2023-04-29T08:42:47.437Z,4.90
2023-04-29T08:45:51.479Z,5.10
2023-04-29T08:48:56.388Z,5.63
2023-04-29T08:51:58.977Z,4.93
2023-04-29T08:55:02.493Z,5.00
2023-04-29T08:58:05.088Z,5.13
2023-04-29T09:01:09.164Z,5.05
2023-04-29T09:04:24.731Z,4.25
2023-04-29T09:07:27.298Z,5.00
2023-04-29T09:10:29.857Z,5.07
2023-04-29T09:13:32.934Z,4.88
2023-04-29T09:16:37.351Z,5.65
2023-04-29T09:19:41.298Z,5.38
2023-04-29T09:22:48.498Z,5.93
2023-04-29T09:29:07.777Z,4.50
2023-04-29T09:32:20.255Z,4.78
2023-04-29T09:35:25.537Z,5.22
2023-04-29T09:38:28.176Z,5.22
2023-04-29T09:41:30.734Z,5.65
2023-04-29T09:44:35.788Z,5.75
2023-04-29T09:47:38.471Z,5.90
2023-04-29T09:50:43.637Z,4.82
2023-04-29T09:53:46.507Z,5.75
2023-04-29T09:56:49.924Z,6.13
2023-04-29T09:59:52.469Z,5.72
2023-04-29T10:02:55.372Z,5.10
2023-04-29T10:05:59.568Z,5.00
2023-04-29T10:09:02.123Z,5.13
2023-04-29T10:12:04.964Z,5.13
2023-04-29T10:15:10.862Z,5.20
2023-04-29T10:18:15.511Z,5.75
2023-04-29T10:21:19.429Z,4.63
2023-04-29T10:24:21.997Z,5.53
2023-04-29T10:27:25.393Z,4.78
2023-04-29T10:30:27.974Z,5.47
2023-04-29T10:33:32.238Z,5.22
2023-04-29T10:36:36.172Z,4.82
2023-04-29T10:39:43.600Z,5.22
2023-04-29T10:42:47.060Z,6.00
2023-04-29T10:45:49.608Z,5.35
2023-04-29T10:48:55.396Z,5.57
2023-04-29T10:52:04.339Z,5.20
2023-04-29T10:55:07.943Z,5.63
2023-04-29T10:58:45.723Z,5.10
2023-04-29T11:01:49.523Z,4.95
2023-04-29T11:05:12.184Z,5.50
2023-04-29T11:08:22.934Z,4.78
2023-04-29T11:11:27.119Z,4.20
2023-04-29T11:14:37.487Z,5.22
2023-04-29T11:17:40.510Z,4.72
2023-04-29T11:21:13.816Z,4.32
2023-04-29T11:24:17.871Z,4.90
2023-04-29T11:27:22.772Z,4.40
2023-04-29T11:30:25.703Z,5.65
2023-04-29T11:33:28.666Z,4.50
2023-04-29T11:36:32.738Z,5.40
2023-04-29T11:39:36.796Z,4.07
2023-04-29T11:42:42.335Z,4.28
2023-04-29T11:45:46.230Z,3.83
2023-04-29T11:48:48.889Z,3.85
2023-04-29T11:51:51.814Z,4.45
2023-04-29T11:54:55.826Z,4.85
2023-04-29T11:57:58.439Z,4.57
2023-04-29T12:01:00.953Z,5.00
2023-04-29T12:04:05.876Z,4.32
2023-04-29T12:07:10.894Z,4.35
2023-04-29T12:10:14.664Z,4.57
2023-04-29T12:13:17.693Z,4.65
2023-04-29T12:16:20.464Z,4.40
2023-04-29T12:19:23.656Z,5.03
2023-04-29T12:22:32.204Z,4.85
2023-04-29T12:25:36.091Z,6.05
2023-04-29T12:28:38.812Z,5.10
2023-04-29T12:31:41.742Z,5.15
2023-04-29T12:34:45.638Z,4.78
2023-04-29T12:37:51.641Z,4.22
2023-04-29T12:40:55.845Z,5.70
2023-04-29T12:43:58.344Z,4.60
2023-04-29T12:47:08.944Z,4.50
2023-04-29T12:50:11.869Z,4.53
2023-04-29T12:53:14.360Z,4.78
2023-04-29T12:56:18.264Z,4.50
2023-04-29T12:59:21.196Z,5.07
2023-04-29T13:02:23.905Z,4.20
2023-04-29T13:05:26.488Z,4.97
2023-04-29T13:08:29.064Z,4.18
2023-04-29T13:11:34.872Z,4.75
2023-04-29T13:14:37.574Z,4.03
2023-04-29T13:17:40.243Z,3.83
2023-04-29T13:20:42.844Z,3.53
2023-04-29T13:23:46.268Z,2.90
2023-04-29T13:26:52.411Z,3.30
2023-04-29T13:29:56.155Z,4.50
2023-04-29T13:33:04.385Z,4.25
2023-04-29T13:36:14.105Z,4.30
2023-04-29T13:39:17.472Z,4.57
2023-04-29T13:42:25.493Z,3.97
2023-04-29T13:45:29.380Z,3.70
2023-04-29T13:49:08.179Z,3.17
2023-04-29T13:52:37.576Z,3.70
2023-04-29T13:56:01.609Z,3.55
2023-04-29T13:59:30.755Z,4.38
2023-04-29T14:05:10.643Z,3.10
2023-04-29T14:08:14.037Z,3.00
2023-04-29T14:11:16.924Z,2.60
2023-04-29T14:14:20.803Z,3.97
2023-04-29T14:17:23.381Z,3.80
2023-04-29T14:20:25.932Z,3.88
2023-04-29T14:23:28.507Z,3.15
2023-04-29T14:26:31.178Z,3.15
2023-04-29T14:29:35.159Z,3.60
2023-04-29T14:32:37.765Z,3.50
2023-04-29T14:35:41.017Z,4.32
2023-04-29T14:38:43.604Z,3.75
2023-04-29T14:41:46.727Z,3.95
2023-04-29T14:44:51.528Z,4.13
2023-04-29T14:47:54.230Z,4.93
2023-04-29T14:50:56.833Z,4.10
2023-04-29T14:53:59.379Z,4.10
2023-04-29T14:57:02.111Z,3.83
2023-04-29T15:00:08.237Z,3.30
2023-04-29T15:03:10.933Z,4.43
2023-04-29T15:06:13.969Z,3.65
2023-04-29T15:09:16.633Z,3.50
2023-04-29T15:12:21.024Z,2.83
2023-04-29T15:15:24.976Z,3.08
2023-04-29T15:18:27.506Z,6.43
2023-04-29T15:21:30.136Z,7.53
2023-04-29T15:24:32.694Z,17.73
2023-04-29T15:27:35.575Z,13.20
2023-04-29T15:30:39.508Z,5.32
2023-04-29T15:33:42.196Z,3.30
2023-04-29T15:36:44.766Z,3.00
2023-04-29T15:39:47.272Z,3.50
2023-04-29T15:42:49.798Z,2.90
2023-04-29T15:45:53.787Z,3.15
2023-04-29T15:48:56.420Z,2.55
2023-04-29T15:51:58.936Z,2.60
2023-04-29T15:55:01.435Z,2.50
2023-04-29T15:58:03.953Z,3.00
2023-04-29T16:01:07.918Z,2.75
2023-04-29T16:04:10.688Z,2.63
2023-04-29T16:07:13.336Z,2.58
2023-04-29T16:10:15.837Z,2.05
2023-04-29T16:13:18.377Z,2.65
2023-04-29T16:16:23.334Z,2.28
2023-04-29T16:19:25.955Z,2.13
2023-04-29T16:22:28.855Z,1.92
2023-04-29T16:25:31.425Z,1.73
2023-04-29T16:28:34.011Z,1.65
2023-04-29T16:31:38.170Z,2.28
2023-04-29T16:34:41.731Z,2.35
2023-04-29T16:37:44.293Z,1.70
2023-04-29T16:40:48.197Z,1.83
2023-04-29T16:43:52.039Z,2.13
2023-04-29T16:46:55.966Z,2.22
2023-04-29T16:49:58.486Z,2.85
2023-04-29T16:53:01.144Z,1.98
2023-04-29T16:56:03.796Z,2.35
2023-04-29T16:59:06.464Z,2.05
2023-04-29T17:02:10.309Z,1.85
2023-04-29T17:05:12.876Z,1.85
2023-04-29T17:08:15.460Z,1.83
2023-04-29T17:11:18.264Z,2.00
2023-04-29T17:14:20.784Z,2.00
2023-04-29T17:17:24.757Z,2.05
2023-04-29T17:20:27.348Z,2.47
2023-04-29T17:23:30.517Z,3.42
2023-04-29T17:26:33.292Z,2.13
2023-04-29T17:29:35.818Z,1.73
2023-04-29T17:32:39.875Z,1.63
2023-04-29T17:35:42.399Z,2.33
2023-04-29T17:38:44.964Z,2.17
2023-04-29T17:41:47.536Z,2.20
2023-04-29T17:44:50.127Z,2.20
2023-04-29T17:47:54.054Z,2.20
2023-04-29T17:50:56.607Z,2.38
2023-04-29T17:53:59.308Z,1.88
2023-04-29T17:57:03.211Z,1.58
2023-04-29T18:00:07.280Z,0.95
2023-04-29T18:03:11.236Z,1.67
2023-04-29T18:06:13.897Z,1.20
2023-04-29T18:09:17.774Z,1.70
2023-04-29T18:12:20.661Z,1.42
2023-04-29T18:15:23.228Z,1.67
2023-04-29T18:18:27.283Z,1.73
2023-04-29T18:21:30.179Z,1.50
2023-04-29T18:24:32.728Z,1.45
2023-04-29T18:27:35.317Z,1.40
2023-04-29T18:30:37.852Z,1.60
2023-04-29T18:33:41.963Z,1.77
2023-04-29T18:36:44.553Z,1.60
2023-04-29T18:39:47.128Z,1.45
2023-04-29T18:42:49.681Z,1.65
2023-04-29T18:45:52.460Z,1.95
2023-04-29T18:48:56.345Z,1.55
2023-04-29T18:52:01.093Z,1.65
2023-04-29T18:55:04.358Z,1.65
2023-04-29T18:58:06.887Z,1.90
2023-04-29T19:01:09.811Z,2.95
2023-04-29T19:04:14.019Z,1.73
2023-04-29T19:07:16.621Z,1.23
2023-04-29T19:10:19.254Z,1.45
2023-04-29T19:13:21.995Z,2.35
2023-04-29T19:16:24.888Z,2.75
2023-04-29T19:19:30.136Z,3.85
2023-04-29T19:22:32.664Z,2.28
2023-04-29T19:25:35.258Z,2.20
2023-04-29T19:28:38.071Z,2.00
2023-04-29T19:31:40.664Z,2.70
2023-04-29T19:34:44.568Z,2.20
2023-04-29T19:37:47.137Z,2.42
2023-04-29T19:40:49.866Z,2.58
2023-04-29T19:43:52.355Z,2.72
2023-04-29T19:46:55.289Z,2.88
2023-04-29T19:49:59.394Z,3.40
2023-04-29T19:53:01.918Z,3.70
2023-04-29T19:56:04.610Z,3.92
2023-04-29T19:59:07.169Z,4.10
2023-04-29T20:02:09.836Z,4.10
2023-04-29T20:05:13.803Z,4.50
2023-04-29T20:08:16.375Z,5.05
2023-04-29T20:11:18.988Z,4.28
2023-04-29T20:14:21.568Z,4.70
2023-04-29T20:17:24.287Z,5.30
2023-04-29T20:20:28.537Z,5.18
2023-04-29T20:23:31.758Z,5.00
2023-04-29T20:26:34.304Z,5.40
2023-04-29T20:29:36.867Z,6.03
2023-04-29T20:32:39.486Z,5.35
2023-04-29T20:35:43.419Z,5.18
2023-04-29T20:38:48.518Z,5.60
2023-04-29T20:41:51.554Z,5.60
2023-04-29T20:44:54.204Z,6.15
2023-04-29T20:47:56.768Z,5.85
2023-04-29T20:51:00.794Z,5.50
2023-04-29T20:54:03.424Z,5.93
2023-04-29T20:57:06.078Z,6.32
2023-04-29T21:00:09.818Z,5.93
2023-04-29T21:03:12.404Z,5.82
2023-04-29T21:06:17.069Z,8.68
2023-04-29T21:09:19.864Z,7.18
2023-04-29T21:12:22.441Z,6.95
2023-04-29T21:15:26.652Z,6.32
2023-04-29T21:18:29.256Z,7.70
2023-04-29T21:21:33.161Z,6.93
2023-04-29T21:24:35.749Z,7.93
2023-04-29T21:27:38.333Z,7.00
2023-04-29T21:30:40.944Z,8.35
2023-04-29T21:33:44.226Z,7.75
2023-04-29T21:36:48.187Z,8.32
2023-04-29T21:39:51.325Z,11.57
2023-04-29T21:42:55.149Z,8.85
2023-04-29T21:45:57.725Z,8.80
2023-04-29T21:49:00.490Z,8.85
2023-04-29T21:52:04.581Z,9.93
2023-04-29T21:55:07.612Z,14.95
2023-04-29T21:58:10.910Z,18.63
2023-04-29T22:01:27.217Z,46.70
2023-04-29T22:04:29.934Z,18.65
2023-04-29T22:07:33.808Z,11.57
2023-04-29T22:10:39.960Z,24.90
2023-04-29T22:13:45.051Z,11.32
2023-04-29T22:16:47.732Z,10.20
2023-04-29T22:19:50.376Z,9.85
2023-04-29T22:22:54.316Z,9.52
2023-04-29T22:25:56.876Z,10.48
2023-04-29T22:28:59.410Z,10.40
2023-04-29T22:32:02.076Z,11.00
2023-04-29T22:35:05.046Z,9.38
2023-04-29T22:38:09.517Z,10.45
2023-04-29T22:41:12.456Z,9.68
2023-04-29T22:44:15.333Z,11.23
2023-04-29T22:47:17.904Z,10.95
2023-04-29T22:50:20.604Z,11.77
2023-04-29T22:53:24.675Z,12.88
2023-04-29T22:56:28.674Z,10.38
2023-04-29T22:59:31.211Z,10.55
2023-04-29T23:02:33.759Z,11.15
2023-04-29T23:05:36.288Z,11.95
2023-04-29T23:08:40.189Z,12.80
2023-04-29T23:11:43.348Z,11.82
2023-04-29T23:14:45.854Z,13.20
2023-04-29T23:17:48.502Z,13.23
2023-04-29T23:20:51.376Z,14.20
2023-04-29T23:23:55.618Z,12.93
2023-04-29T23:26:58.164Z,13.73
2023-04-29T23:30:00.701Z,12.75
2023-04-29T23:33:03.263Z,11.57
2023-04-29T23:36:06.677Z,12.48
2023-04-29T23:39:10.530Z,12.23
2023-04-29T23:42:13.337Z,12.68
2023-04-29T23:45:15.993Z,11.73
2023-04-29T23:48:18.519Z,11.48
2023-04-29T23:51:21.048Z,10.73
2023-04-29T23:54:24.918Z,11.43
2023-04-29T23:57:27.448Z,12.48
